sensor_id;sensor_type;location;lat;lon;timestamp;pressure;altitude;pressure_sealevel;temperature;humidity
9249;BME280;4660;41.768;26.198;2022-12-29T00:02:15;102118.78;;;5.11;100.00
9249;BME280;4660;41.768;26.198;2022-12-29T00:04:41;102156.00;;;5.33;100.00
9249;BME280;4660;41.768;26.198;2022-12-29T00:07:07;102151.94;;;5.43;100.00
9249;BME280;4660;41.768;26.198;2022-12-29T00:09:34;102151.59;;;5.32;100.00
9249;BME280;4660;41.768;26.198;2022-12-29T00:12:00;102153.69;;;5.25;100.00
9249;BME280;4660;41.768;26.198;2022-12-29T00:14:27;102145.75;;;5.23;100.00
9249;BME280;4660;41.768;26.198;2022-12-29T00:17:11;102100.44;;;5.41;100.00
9249;BME280;4660;41.768;26.198;2022-12-29T00:19:36;102135.91;;;5.62;100.00
9249;BME280;4660;41.768;26.198;2022-12-29T00:22:20;102159.09;;;5.78;100.00
9249;BME280;4660;41.768;26.198;2022-12-29T00:25:07;102155.81;;;5.73;100.00
9249;BME280;4660;41.768;26.198;2022-12-29T00:27:52;102166.78;;;5.67;100.00
9249;BME280;4660;41.768;26.198;2022-12-29T00:30:36;102168.28;;;5.37;100.00
9249;BME280;4660;41.768;26.198;2022-12-29T00:33:22;102159.31;;;5.38;100.00
9249;BME280;4660;41.768;26.198;2022-12-29T00:36:18;102181.75;;;5.15;100.00
9249;BME280;4660;41.768;26.198;2022-12-29T00:38:48;102170.34;;;5.11;100.00
9249;BME280;4660;41.768;26.198;2022-12-29T00:41:33;102160.84;;;4.85;100.00
9249;BME280;4660;41.768;26.198;2022-12-29T00:44:17;102168.13;;;4.82;100.00
9249;BME280;4660;41.768;26.198;2022-12-29T00:46:43;102162.47;;;5.08;100.00
9249;BME280;4660;41.768;26.198;2022-12-29T00:49:10;102157.94;;;5.10;100.00
9249;BME280;4660;41.768;26.198;2022-12-29T00:51:59;102163.66;;;5.21;100.00
9249;BME280;4660;41.768;26.198;2022-12-29T00:54:26;102182.69;;;5.33;100.00
9249;BME280;4660;41.768;26.198;2022-12-29T00:56:53;102166.00;;;5.09;100.00
9249;BME280;4660;41.768;26.198;2022-12-29T00:59:19;102143.81;;;4.69;100.00
9249;BME280;4660;41.768;26.198;2022-12-29T01:01:45;102150.13;;;5.06;100.00
9249;BME280;4660;41.768;26.198;2022-12-29T01:04:11;102159.69;;;4.72;100.00
9249;BME280;4660;41.768;26.198;2022-12-29T01:06:38;102143.69;;;4.72;100.00
9249;BME280;4660;41.768;26.198;2022-12-29T01:09:05;102147.41;;;5.07;100.00
9249;BME280;4660;41.768;26.198;2022-12-29T01:11:50;102137.47;;;5.11;100.00
9249;BME280;4660;41.768;26.198;2022-12-29T01:14:16;102160.47;;;5.32;100.00
9249;BME280;4660;41.768;26.198;2022-12-29T01:16:42;102164.88;;;5.33;100.00
9249;BME280;4660;41.768;26.198;2022-12-29T01:19:09;102158.00;;;5.28;100.00
9249;BME280;4660;41.768;26.198;2022-12-29T01:21:34;102159.19;;;5.22;100.00
9249;BME280;4660;41.768;26.198;2022-12-29T01:24:00;102152.53;;;5.12;100.00
9249;BME280;4660;41.768;26.198;2022-12-29T01:26:26;102150.16;;;5.24;100.00
9249;BME280;4660;41.768;26.198;2022-12-29T01:28:51;102143.56;;;5.13;100.00
9249;BME280;4660;41.768;26.198;2022-12-29T01:31:17;102140.19;;;5.09;100.00
9249;BME280;4660;41.768;26.198;2022-12-29T01:33:43;102143.00;;;4.87;100.00
9249;BME280;4660;41.768;26.198;2022-12-29T01:36:11;102141.97;;;4.90;100.00
9249;BME280;4660;41.768;26.198;2022-12-29T01:38:38;102140.69;;;4.39;100.00
9249;BME280;4660;41.768;26.198;2022-12-29T01:41:05;102133.09;;;4.50;100.00
9249;BME280;4660;41.768;26.198;2022-12-29T01:43:51;102127.63;;;4.74;100.00
9249;BME280;4660;41.768;26.198;2022-12-29T01:49:16;102124.09;;;4.73;100.00
9249;BME280;4660;41.768;26.198;2022-12-29T01:52:02;102114.56;;;4.67;100.00
9249;BME280;4660;41.768;26.198;2022-12-29T01:54:39;102110.09;;;4.48;100.00
9249;BME280;4660;41.768;26.198;2022-12-29T01:57:09;102128.16;;;4.41;100.00
9249;BME280;4660;41.768;26.198;2022-12-29T01:59:43;102111.00;;;4.07;100.00
9249;BME280;4660;41.768;26.198;2022-12-29T02:02:11;102112.91;;;4.45;100.00
9249;BME280;4660;41.768;26.198;2022-12-29T02:04:40;102109.31;;;4.46;100.00
9249;BME280;4660;41.768;26.198;2022-12-29T02:07:13;102114.31;;;4.33;100.00
9249;BME280;4660;41.768;26.198;2022-12-29T02:09:41;102105.00;;;4.43;100.00
9249;BME280;4660;41.768;26.198;2022-12-29T02:12:07;102112.72;;;4.29;100.00
9249;BME280;4660;41.768;26.198;2022-12-29T02:14:33;102102.66;;;4.35;100.00
9249;BME280;4660;41.768;26.198;2022-12-29T02:31:14;102107.72;;;4.41;100.00
9249;BME280;4660;41.768;26.198;2022-12-29T02:33:56;102107.44;;;4.48;100.00
9249;BME280;4660;41.768;26.198;2022-12-29T02:37:24;102118.31;;;4.23;100.00
9249;BME280;4660;41.768;26.198;2022-12-29T02:42:48;102109.38;;;3.61;100.00
9249;BME280;4660;41.768;26.198;2022-12-29T02:48:32;102121.06;;;3.79;100.00
9249;BME280;4660;41.768;26.198;2022-12-29T02:51:03;102122.50;;;3.66;100.00
9249;BME280;4660;41.768;26.198;2022-12-29T02:53:32;102117.03;;;3.69;100.00
9249;BME280;4660;41.768;26.198;2022-12-29T02:56:17;102119.69;;;3.25;100.00
9249;BME280;4660;41.768;26.198;2022-12-29T02:58:42;102112.25;;;3.11;100.00
9249;BME280;4660;41.768;26.198;2022-12-29T03:04:32;102122.38;;;3.01;100.00
9249;BME280;4660;41.768;26.198;2022-12-29T03:07:18;102121.19;;;2.62;100.00
9249;BME280;4660;41.768;26.198;2022-12-29T03:15:25;102120.81;;;2.47;100.00
9249;BME280;4660;41.768;26.198;2022-12-29T03:18:15;102128.16;;;2.64;100.00
9249;BME280;4660;41.768;26.198;2022-12-29T03:21:06;102098.75;;;2.45;100.00
9249;BME280;4660;41.768;26.198;2022-12-29T03:23:34;102118.16;;;2.72;100.00
9249;BME280;4660;41.768;26.198;2022-12-29T03:26:04;102111.69;;;2.80;100.00
9249;BME280;4660;41.768;26.198;2022-12-29T03:28:39;102116.81;;;3.08;100.00
9249;BME280;4660;41.768;26.198;2022-12-29T03:31:08;102098.91;;;2.89;100.00
9249;BME280;4660;41.768;26.198;2022-12-29T03:33:36;102108.47;;;3.17;100.00
9249;BME280;4660;41.768;26.198;2022-12-29T03:36:04;102111.94;;;3.19;100.00
9249;BME280;4660;41.768;26.198;2022-12-29T03:38:37;102119.13;;;3.17;100.00
9249;BME280;4660;41.768;26.198;2022-12-29T03:41:06;102096.81;;;2.97;100.00
9249;BME280;4660;41.768;26.198;2022-12-29T03:43:33;102112.91;;;2.94;100.00
9249;BME280;4660;41.768;26.198;2022-12-29T03:45:59;102112.41;;;2.83;100.00
9249;BME280;4660;41.768;26.198;2022-12-29T03:48:24;102120.97;;;2.68;100.00
9249;BME280;4660;41.768;26.198;2022-12-29T03:50:50;102102.94;;;2.53;100.00
9249;BME280;4660;41.768;26.198;2022-12-29T03:53:16;102122.13;;;2.84;100.00
9249;BME280;4660;41.768;26.198;2022-12-29T03:55:41;102106.75;;;2.69;100.00
9249;BME280;4660;41.768;26.198;2022-12-29T03:58:07;102113.06;;;2.66;100.00
9249;BME280;4660;41.768;26.198;2022-12-29T04:00:34;102109.03;;;2.55;100.00
9249;BME280;4660;41.768;26.198;2022-12-29T04:02:59;102120.31;;;2.61;100.00
9249;BME280;4660;41.768;26.198;2022-12-29T04:05:25;102075.72;;;2.46;100.00
9249;BME280;4660;41.768;26.198;2022-12-29T04:07:50;102116.00;;;2.59;100.00
9249;BME280;4660;41.768;26.198;2022-12-29T04:10:16;102120.09;;;2.42;100.00
9249;BME280;4660;41.768;26.198;2022-12-29T04:12:42;102108.28;;;2.26;100.00
9249;BME280;4660;41.768;26.198;2022-12-29T04:15:08;102128.63;;;2.27;100.00
9249;BME280;4660;41.768;26.198;2022-12-29T04:17:33;102127.22;;;2.17;100.00
9249;BME280;4660;41.768;26.198;2022-12-29T04:19:59;102105.97;;;1.90;100.00
9249;BME280;4660;41.768;26.198;2022-12-29T04:22:43;102130.72;;;2.17;100.00
9249;BME280;4660;41.768;26.198;2022-12-29T04:25:09;102136.09;;;2.16;100.00
9249;BME280;4660;41.768;26.198;2022-12-29T04:27:34;102137.69;;;2.22;100.00
9249;BME280;4660;41.768;26.198;2022-12-29T04:30:00;102125.47;;;2.16;100.00
9249;BME280;4660;41.768;26.198;2022-12-29T04:32:25;102126.59;;;2.09;100.00
9249;BME280;4660;41.768;26.198;2022-12-29T04:34:51;102138.56;;;2.20;100.00
9249;BME280;4660;41.768;26.198;2022-12-29T04:37:17;102138.53;;;2.22;100.00
9249;BME280;4660;41.768;26.198;2022-12-29T04:39:42;102134.56;;;2.09;100.00
9249;BME280;4660;41.768;26.198;2022-12-29T04:42:08;102124.41;;;1.95;100.00
9249;BME280;4660;41.768;26.198;2022-12-29T04:44:33;102136.44;;;2.05;100.00
9249;BME280;4660;41.768;26.198;2022-12-29T04:46:59;102133.53;;;2.13;100.00
9249;BME280;4660;41.768;26.198;2022-12-29T04:49:24;102129.06;;;2.15;100.00
9249;BME280;4660;41.768;26.198;2022-12-29T04:51:50;102139.88;;;2.34;100.00
9249;BME280;4660;41.768;26.198;2022-12-29T04:54:15;102141.91;;;2.52;100.00
9249;BME280;4660;41.768;26.198;2022-12-29T04:56:41;102124.75;;;2.61;100.00
9249;BME280;4660;41.768;26.198;2022-12-29T04:59:06;102120.66;;;2.52;100.00
9249;BME280;4660;41.768;26.198;2022-12-29T05:01:32;102134.09;;;2.47;100.00
9249;BME280;4660;41.768;26.198;2022-12-29T05:03:58;102145.13;;;2.35;100.00
9249;BME280;4660;41.768;26.198;2022-12-29T05:06:29;102117.59;;;2.13;100.00
9249;BME280;4660;41.768;26.198;2022-12-29T05:08:54;102118.19;;;2.21;100.00
9249;BME280;4660;41.768;26.198;2022-12-29T05:11:20;102139.47;;;2.46;100.00
9249;BME280;4660;41.768;26.198;2022-12-29T05:13:46;102086.47;;;2.18;100.00
9249;BME280;4660;41.768;26.198;2022-12-29T05:16:13;102005.81;;;1.72;100.00
9249;BME280;4660;41.768;26.198;2022-12-29T05:18:39;102158.59;;;2.56;100.00
9249;BME280;4660;41.768;26.198;2022-12-29T05:21:07;102008.28;;;1.77;100.00
9249;BME280;4660;41.768;26.198;2022-12-29T05:23:35;102096.16;;;1.94;100.00
9249;BME280;4660;41.768;26.198;2022-12-29T05:26:03;102152.63;;;2.24;100.00
9249;BME280;4660;41.768;26.198;2022-12-29T05:28:33;102128.59;;;2.02;100.00
9249;BME280;4660;41.768;26.198;2022-12-29T05:31:00;102147.00;;;2.07;100.00
9249;BME280;4660;41.768;26.198;2022-12-29T05:33:26;102095.47;;;1.87;100.00
9249;BME280;4660;41.768;26.198;2022-12-29T05:35:54;102089.41;;;1.84;100.00
9249;BME280;4660;41.768;26.198;2022-12-29T05:38:22;102112.16;;;1.91;100.00
9249;BME280;4660;41.768;26.198;2022-12-29T05:40:48;102157.13;;;1.96;100.00
9249;BME280;4660;41.768;26.198;2022-12-29T05:43:30;102059.34;;;1.30;100.00
9249;BME280;4660;41.768;26.198;2022-12-29T05:46:41;102055.66;;;1.06;100.00
9249;BME280;4660;41.768;26.198;2022-12-29T05:49:08;102100.66;;;1.37;100.00
9249;BME280;4660;41.768;26.198;2022-12-29T05:55:18;102072.94;;;1.74;100.00
9249;BME280;4660;41.768;26.198;2022-12-29T05:57:44;102046.19;;;1.80;100.00
9249;BME280;4660;41.768;26.198;2022-12-29T06:00:22;102107.00;;;2.38;100.00
9249;BME280;4660;41.768;26.198;2022-12-29T06:02:50;102052.16;;;2.12;100.00
9249;BME280;4660;41.768;26.198;2022-12-29T06:05:18;102011.31;;;1.91;100.00
9249;BME280;4660;41.768;26.198;2022-12-29T06:07:43;102114.75;;;2.44;100.00
9249;BME280;4660;41.768;26.198;2022-12-29T06:10:11;102116.84;;;2.59;100.00
9249;BME280;4660;41.768;26.198;2022-12-29T06:12:40;102049.44;;;2.13;100.00
9249;BME280;4660;41.768;26.198;2022-12-29T06:15:07;102008.06;;;1.58;100.00
9249;BME280;4660;41.768;26.198;2022-12-29T06:17:33;102047.59;;;1.90;100.00
9249;BME280;4660;41.768;26.198;2022-12-29T06:20:02;102011.72;;;1.80;100.00
9249;BME280;4660;41.768;26.198;2022-12-29T06:22:31;102062.41;;;1.71;100.00
9249;BME280;4660;41.768;26.198;2022-12-29T06:25:03;102085.84;;;1.58;100.00
9249;BME280;4660;41.768;26.198;2022-12-29T06:27:38;102034.81;;;1.24;100.00
9249;BME280;4660;41.768;26.198;2022-12-29T06:30:18;102096.81;;;1.74;100.00
9249;BME280;4660;41.768;26.198;2022-12-29T06:33:01;102174.31;;;2.37;100.00
9249;BME280;4660;41.768;26.198;2022-12-29T06:35:28;102161.22;;;2.57;100.00
9249;BME280;4660;41.768;26.198;2022-12-29T06:37:54;102129.56;;;2.51;100.00
9249;BME280;4660;41.768;26.198;2022-12-29T06:40:23;102070.63;;;1.90;100.00
9249;BME280;4660;41.768;26.198;2022-12-29T06:42:57;102120.00;;;2.20;100.00
9249;BME280;4660;41.768;26.198;2022-12-29T06:45:25;102078.50;;;2.18;100.00
9249;BME280;4660;41.768;26.198;2022-12-29T06:47:54;102165.19;;;2.69;100.00
9249;BME280;4660;41.768;26.198;2022-12-29T06:50:24;102102.34;;;2.44;100.00
9249;BME280;4660;41.768;26.198;2022-12-29T06:52:54;102158.03;;;2.71;100.00
9249;BME280;4660;41.768;26.198;2022-12-29T06:55:20;102189.63;;;3.03;100.00
9249;BME280;4660;41.768;26.198;2022-12-29T06:57:53;102187.88;;;2.79;100.00
9249;BME280;4660;41.768;26.198;2022-12-29T07:00:19;102105.03;;;2.18;100.00
9249;BME280;4660;41.768;26.198;2022-12-29T07:02:47;102097.88;;;2.20;100.00
9249;BME280;4660;41.768;26.198;2022-12-29T07:05:15;102168.06;;;2.63;100.00
9249;BME280;4660;41.768;26.198;2022-12-29T07:07:55;102007.41;;;1.76;100.00
9249;BME280;4660;41.768;26.198;2022-12-29T07:10:34;102205.75;;;2.99;100.00
9249;BME280;4660;41.768;26.198;2022-12-29T07:13:04;102191.00;;;2.90;100.00
9249;BME280;4660;41.768;26.198;2022-12-29T07:15:40;102087.91;;;2.52;100.00
9249;BME280;4660;41.768;26.198;2022-12-29T07:18:14;102128.72;;;2.74;100.00
9249;BME280;4660;41.768;26.198;2022-12-29T07:20:46;102204.00;;;3.23;100.00
9249;BME280;4660;41.768;26.198;2022-12-29T07:23:14;102213.69;;;3.00;100.00
9249;BME280;4660;41.768;26.198;2022-12-29T07:25:49;102173.63;;;3.05;100.00
9249;BME280;4660;41.768;26.198;2022-12-29T07:28:19;102067.03;;;2.66;100.00
9249;BME280;4660;41.768;26.198;2022-12-29T07:30:52;102155.41;;;3.18;100.00
9249;BME280;4660;41.768;26.198;2022-12-29T07:33:42;102107.56;;;2.94;100.00
9249;BME280;4660;41.768;26.198;2022-12-29T07:38:50;102146.13;;;3.51;100.00
9249;BME280;4660;41.768;26.198;2022-12-29T07:41:19;102150.38;;;3.77;100.00
9249;BME280;4660;41.768;26.198;2022-12-29T07:43:48;102189.09;;;3.86;100.00
9249;BME280;4660;41.768;26.198;2022-12-29T07:46:19;102152.72;;;3.85;100.00
9249;BME280;4660;41.768;26.198;2022-12-29T07:48:45;102059.50;;;3.22;100.00
9249;BME280;4660;41.768;26.198;2022-12-29T07:51:12;102097.69;;;3.65;100.00
9249;BME280;4660;41.768;26.198;2022-12-29T07:59:14;102095.91;;;4.06;100.00
9249;BME280;4660;41.768;26.198;2022-12-29T08:02:17;102184.53;;;4.73;100.00
9249;BME280;4660;41.768;26.198;2022-12-29T08:04:49;102187.13;;;4.94;100.00
9249;BME280;4660;41.768;26.198;2022-12-29T08:07:24;102187.56;;;5.04;100.00
9249;BME280;4660;41.768;26.198;2022-12-29T08:09:51;102127.38;;;4.78;100.00
9249;BME280;4660;41.768;26.198;2022-12-29T08:12:18;102134.34;;;5.01;100.00
9249;BME280;4660;41.768;26.198;2022-12-29T08:14:46;102185.00;;;5.21;100.00
9249;BME280;4660;41.768;26.198;2022-12-29T08:17:14;102182.41;;;5.39;100.00
9249;BME280;4660;41.768;26.198;2022-12-29T08:19:40;102181.09;;;5.47;100.00
9249;BME280;4660;41.768;26.198;2022-12-29T08:22:08;102158.88;;;5.47;100.00
9249;BME280;4660;41.768;26.198;2022-12-29T08:24:36;102105.25;;;5.15;100.00
9249;BME280;4660;41.768;26.198;2022-12-29T08:29:40;102189.88;;;6.23;100.00
9249;BME280;4660;41.768;26.198;2022-12-29T08:32:14;102181.72;;;6.44;100.00
9249;BME280;4660;41.768;26.198;2022-12-29T08:34:41;102176.53;;;6.58;100.00
9249;BME280;4660;41.768;26.198;2022-12-29T08:37:08;102184.59;;;6.56;100.00
9249;BME280;4660;41.768;26.198;2022-12-29T08:39:34;102188.22;;;6.73;100.00
9249;BME280;4660;41.768;26.198;2022-12-29T08:42:00;102178.09;;;6.62;100.00
9249;BME280;4660;41.768;26.198;2022-12-29T08:44:25;102185.47;;;6.74;100.00
9249;BME280;4660;41.768;26.198;2022-12-29T08:46:51;102171.78;;;6.80;100.00
9249;BME280;4660;41.768;26.198;2022-12-29T08:49:16;102185.81;;;7.01;100.00
9249;BME280;4660;41.768;26.198;2022-12-29T08:51:42;102184.03;;;7.17;100.00
9249;BME280;4660;41.768;26.198;2022-12-29T08:54:08;102180.00;;;7.26;100.00
9249;BME280;4660;41.768;26.198;2022-12-29T08:56:40;102164.66;;;7.45;100.00
9249;BME280;4660;41.768;26.198;2022-12-29T08:59:05;102158.69;;;7.72;100.00
9249;BME280;4660;41.768;26.198;2022-12-29T09:01:31;102137.75;;;7.63;100.00
9249;BME280;4660;41.768;26.198;2022-12-29T09:03:58;102167.25;;;7.79;100.00
9249;BME280;4660;41.768;26.198;2022-12-29T09:06:23;102162.38;;;7.85;100.00
9249;BME280;4660;41.768;26.198;2022-12-29T09:08:49;102153.28;;;8.04;100.00
9249;BME280;4660;41.768;26.198;2022-12-29T09:11:20;102144.13;;;8.08;100.00
9249;BME280;4660;41.768;26.198;2022-12-29T09:13:47;102161.00;;;8.24;100.00
9249;BME280;4660;41.768;26.198;2022-12-29T09:16:13;102154.03;;;8.51;100.00
9249;BME280;4660;41.768;26.198;2022-12-29T09:18:39;102132.28;;;8.56;100.00
9249;BME280;4660;41.768;26.198;2022-12-29T09:21:06;102142.00;;;8.73;100.00
9249;BME280;4660;41.768;26.198;2022-12-29T09:23:32;102143.34;;;8.80;100.00
9249;BME280;4660;41.768;26.198;2022-12-29T09:25:58;102140.34;;;8.85;100.00
9249;BME280;4660;41.768;26.198;2022-12-29T09:28:24;102142.50;;;8.94;100.00
9249;BME280;4660;41.768;26.198;2022-12-29T09:30:50;102140.47;;;8.97;100.00
9249;BME280;4660;41.768;26.198;2022-12-29T09:33:16;102135.09;;;9.12;100.00
9249;BME280;4660;41.768;26.198;2022-12-29T09:35:53;102122.13;;;9.32;100.00
9249;BME280;4660;41.768;26.198;2022-12-29T09:38:19;102126.81;;;9.43;100.00
9249;BME280;4660;41.768;26.198;2022-12-29T09:40:50;102116.97;;;9.56;100.00
9249;BME280;4660;41.768;26.198;2022-12-29T09:46:35;102097.28;;;9.56;100.00
9249;BME280;4660;41.768;26.198;2022-12-29T09:49:19;102105.72;;;9.64;100.00
9249;BME280;4660;41.768;26.198;2022-12-29T09:51:50;102099.19;;;9.68;100.00
9249;BME280;4660;41.768;26.198;2022-12-29T09:54:30;102089.84;;;9.74;100.00
9249;BME280;4660;41.768;26.198;2022-12-29T09:56:59;102091.06;;;9.82;100.00
9249;BME280;4660;41.768;26.198;2022-12-29T09:59:42;102059.53;;;9.72;100.00
9249;BME280;4660;41.768;26.198;2022-12-29T10:02:30;102090.34;;;9.93;100.00
9249;BME280;4660;41.768;26.198;2022-12-29T10:04:57;102070.47;;;9.96;100.00
9249;BME280;4660;41.768;26.198;2022-12-29T10:07:52;102084.34;;;10.02;100.00
9249;BME280;4660;41.768;26.198;2022-12-29T10:13:28;102077.44;;;10.51;100.00
9249;BME280;4660;41.768;26.198;2022-12-29T10:16:32;102071.72;;;10.68;100.00
9249;BME280;4660;41.768;26.198;2022-12-29T10:24:38;102020.91;;;10.63;100.00
9249;BME280;4660;41.768;26.198;2022-12-29T10:27:09;102029.09;;;10.74;100.00
9249;BME280;4660;41.768;26.198;2022-12-29T10:30:01;102051.38;;;10.77;100.00
9249;BME280;4660;41.768;26.198;2022-12-29T10:32:43;102054.50;;;10.70;100.00
9249;BME280;4660;41.768;26.198;2022-12-29T10:35:22;102038.34;;;10.70;100.00
9249;BME280;4660;41.768;26.198;2022-12-29T10:42:59;102042.00;;;10.82;100.00
9249;BME280;4660;41.768;26.198;2022-12-29T10:45:29;102035.00;;;10.80;100.00
9249;BME280;4660;41.768;26.198;2022-12-29T10:48:03;102015.94;;;10.70;100.00
9249;BME280;4660;41.768;26.198;2022-12-29T10:50:32;102002.16;;;10.74;100.00
9249;BME280;4660;41.768;26.198;2022-12-29T10:53:01;102036.59;;;10.95;100.00
9249;BME280;4660;41.768;26.198;2022-12-29T10:55:32;102013.13;;;10.84;100.00
9249;BME280;4660;41.768;26.198;2022-12-29T10:58:05;102040.25;;;10.94;100.00
9249;BME280;4660;41.768;26.198;2022-12-29T11:00:32;102029.84;;;11.13;100.00
9249;BME280;4660;41.768;26.198;2022-12-29T11:06:18;101972.25;;;11.03;100.00
9249;BME280;4660;41.768;26.198;2022-12-29T11:09:16;102015.19;;;11.41;100.00
9249;BME280;4660;41.768;26.198;2022-12-29T11:11:46;101886.88;;;10.68;100.00
9249;BME280;4660;41.768;26.198;2022-12-29T11:14:16;102008.31;;;11.61;100.00
9249;BME280;4660;41.768;26.198;2022-12-29T11:16:43;101884.88;;;10.59;100.00
9249;BME280;4660;41.768;26.198;2022-12-29T11:19:25;101950.72;;;11.03;100.00
9249;BME280;4660;41.768;26.198;2022-12-29T11:22:21;101997.28;;;11.64;100.00
9249;BME280;4660;41.768;26.198;2022-12-29T11:24:48;101893.03;;;10.94;100.00
9249;BME280;4660;41.768;26.198;2022-12-29T11:27:30;101928.72;;;11.09;100.00
9249;BME280;4660;41.768;26.198;2022-12-29T11:29:57;101914.41;;;11.44;100.00
9249;BME280;4660;41.768;26.198;2022-12-29T11:32:25;101874.06;;;11.31;100.00
9249;BME280;4660;41.768;26.198;2022-12-29T11:34:56;101968.50;;;12.11;100.00
9249;BME280;4660;41.768;26.198;2022-12-29T11:37:37;101842.25;;;11.36;100.00
9249;BME280;4660;41.768;26.198;2022-12-29T11:40:29;101965.59;;;12.25;100.00
9249;BME280;4660;41.768;26.198;2022-12-29T11:43:00;101980.13;;;11.89;100.00
9249;BME280;4660;41.768;26.198;2022-12-29T11:45:35;101922.50;;;11.90;100.00
9249;BME280;4660;41.768;26.198;2022-12-29T11:48:09;101955.75;;;12.13;100.00
9249;BME280;4660;41.768;26.198;2022-12-29T11:50:40;101853.75;;;11.38;100.00
9249;BME280;4660;41.768;26.198;2022-12-29T11:55:40;101879.97;;;11.94;100.00
9249;BME280;4660;41.768;26.198;2022-12-29T11:58:36;101960.44;;;12.22;100.00
9249;BME280;4660;41.768;26.198;2022-12-29T12:01:16;101896.97;;;11.72;100.00
9249;BME280;4660;41.768;26.198;2022-12-29T12:06:34;101958.81;;;12.42;100.00
9249;BME280;4660;41.768;26.198;2022-12-29T12:09:22;101830.88;;;11.77;100.00
9249;BME280;4660;41.768;26.198;2022-12-29T12:12:09;101858.16;;;11.97;100.00
9249;BME280;4660;41.768;26.198;2022-12-29T12:14:51;101952.59;;;12.53;100.00
9249;BME280;4660;41.768;26.198;2022-12-29T12:17:25;101948.78;;;12.33;100.00
9249;BME280;4660;41.768;26.198;2022-12-29T12:20:22;101953.44;;;12.31;100.00
9249;BME280;4660;41.768;26.198;2022-12-29T12:25:48;101876.78;;;12.00;100.00
9249;BME280;4660;41.768;26.198;2022-12-29T12:28:26;101940.44;;;12.47;100.00
9249;BME280;4660;41.768;26.198;2022-12-29T12:30:57;101898.25;;;12.24;100.00
9249;BME280;4660;41.768;26.198;2022-12-29T12:33:28;101938.09;;;12.65;100.00
9249;BME280;4660;41.768;26.198;2022-12-29T12:41:00;101929.13;;;12.42;100.00
9249;BME280;4660;41.768;26.198;2022-12-29T12:43:54;101870.53;;;12.10;100.00
9249;BME280;4660;41.768;26.198;2022-12-29T12:47:08;101929.66;;;12.36;100.00
9249;BME280;4660;41.768;26.198;2022-12-29T13:00:11;101887.09;;;11.95;100.00
9249;BME280;4660;41.768;26.198;2022-12-29T13:08:24;101925.00;;;12.38;100.00
9249;BME280;4660;41.768;26.198;2022-12-29T13:24:53;101844.63;;;11.74;100.00
9249;BME280;4660;41.768;26.198;2022-12-29T13:31:00;101932.34;;;12.58;100.00
9249;BME280;4660;41.768;26.198;2022-12-29T13:42:04;101874.50;;;11.71;100.00
9249;BME280;4660;41.768;26.198;2022-12-29T13:47:57;101873.31;;;11.75;100.00
9249;BME280;4660;41.768;26.198;2022-12-29T13:50:32;101824.25;;;11.48;100.00
9249;BME280;4660;41.768;26.198;2022-12-29T13:53:30;101940.56;;;12.23;100.00
9249;BME280;4660;41.768;26.198;2022-12-29T13:56:36;101939.81;;;12.21;100.00
9249;BME280;4660;41.768;26.198;2022-12-29T13:59:57;101807.84;;;11.51;100.00
9249;BME280;4660;41.768;26.198;2022-12-29T14:03:50;101859.56;;;11.78;100.00
9249;BME280;4660;41.768;26.198;2022-12-29T14:06:19;101942.88;;;12.05;100.00
9249;BME280;4660;41.768;26.198;2022-12-29T14:09:38;101883.97;;;11.77;100.00
9249;BME280;4660;41.768;26.198;2022-12-29T14:12:30;101941.25;;;11.92;100.00
9249;BME280;4660;41.768;26.198;2022-12-29T14:15:13;101929.00;;;11.88;100.00
9249;BME280;4660;41.768;26.198;2022-12-29T14:18:33;101823.88;;;11.06;100.00
9249;BME280;4660;41.768;26.198;2022-12-29T14:21:21;101938.47;;;11.58;100.00
9249;BME280;4660;41.768;26.198;2022-12-29T14:24:26;101826.44;;;10.96;100.00
9249;BME280;4660;41.768;26.198;2022-12-29T14:26:49;101934.94;;;11.69;100.00
9249;BME280;4660;41.768;26.198;2022-12-29T14:29:42;101944.38;;;11.74;100.00
9249;BME280;4660;41.768;26.198;2022-12-29T14:32:37;101824.66;;;10.84;100.00
9249;BME280;4660;41.768;26.198;2022-12-29T14:35:39;101945.59;;;11.35;100.00
9249;BME280;4660;41.768;26.198;2022-12-29T14:38:29;101949.63;;;11.29;100.00
9249;BME280;4660;41.768;26.198;2022-12-29T14:41:39;101875.34;;;10.90;100.00
9249;BME280;4660;41.768;26.198;2022-12-29T14:46:54;101849.13;;;10.57;100.00
9249;BME280;4660;41.768;26.198;2022-12-29T14:49:42;101899.47;;;10.92;100.00
9249;BME280;4660;41.768;26.198;2022-12-29T14:52:25;101857.50;;;10.65;100.00
9249;BME280;4660;41.768;26.198;2022-12-29T14:57:51;101821.97;;;9.87;100.00
9249;BME280;4660;41.768;26.198;2022-12-29T15:00:33;101933.88;;;10.52;100.00
9249;BME280;4660;41.768;26.198;2022-12-29T15:03:23;101935.53;;;10.29;100.00
9249;BME280;4660;41.768;26.198;2022-12-29T15:06:04;101826.72;;;9.58;100.00
9249;BME280;4660;41.768;26.198;2022-12-29T15:11:25;101794.44;;;9.20;100.00
9249;BME280;4660;41.768;26.198;2022-12-29T15:13:55;101940.22;;;10.00;100.00
9249;BME280;4660;41.768;26.198;2022-12-29T15:16:32;101816.16;;;9.29;100.00
9249;BME280;4660;41.768;26.198;2022-12-29T15:19:23;101849.69;;;9.49;100.00
9249;BME280;4660;41.768;26.198;2022-12-29T15:21:50;101923.03;;;10.02;100.00
9249;BME280;4660;41.768;26.198;2022-12-29T15:24:16;101846.16;;;9.36;100.00
9249;BME280;4660;41.768;26.198;2022-12-29T15:26:46;101898.06;;;9.62;100.00
9249;BME280;4660;41.768;26.198;2022-12-29T15:29:59;101912.91;;;9.68;100.00
9249;BME280;4660;41.768;26.198;2022-12-29T15:32:28;101921.34;;;9.49;100.00
9249;BME280;4660;41.768;26.198;2022-12-29T15:34:56;101915.00;;;9.37;100.00
9249;BME280;4660;41.768;26.198;2022-12-29T15:37:33;101935.13;;;9.44;100.00
9249;BME280;4660;41.768;26.198;2022-12-29T15:40:00;101943.88;;;9.33;100.00
9249;BME280;4660;41.768;26.198;2022-12-29T15:45:35;101931.72;;;9.28;100.00
9249;BME280;4660;41.768;26.198;2022-12-29T15:48:03;101901.09;;;9.18;100.00
9249;BME280;4660;41.768;26.198;2022-12-29T15:50:36;101933.75;;;9.51;100.00